Nearby METAR Reports

 

KCMA - Camarillo, California, USA
Distance from station: WSW 4mi, 7km
Updated: Mon, 24-Jun-2019 4:55am PDT
Mist, Overcast
Mist, Overcast
 Wind from WSW
Wind: WSW 5 mph , 7 km/h
Temperature: 61°F , 16°C
Dew Point: 57°F , 14°C
Humidity: 88%
Barometer: 29.91 inHg , 1012.9 hPa
Summary: Mist
Clouds: Overcast
Visibility: 4 miles , 6 km
Cloud details: Overcast 600 ft
2019/06/24 11:55 KCMA 241155Z 24004KT 4SM BR OVC006 16/14 A2991 RMK AO2 CIG 003V006 SLP136 T01560139 10167 20156 57002
KNTD - Point Mugu Nas, California, USA
Distance from station: SSW 9mi, 15km
Updated: Mon, 24-Jun-2019 4:57am PDT
Overcast
Overcast
 Wind from SE
Wind: SE 5 mph , 7 km/h
Temperature: 61°F , 16°C
Dew Point: 61°F , 16°C
Humidity: 100%
Barometer: 29.92 inHg , 1013.2 hPa
Clouds: Overcast
Visibility: 9 miles , 14 km
Cloud details: Overcast 1100 ft
2019/06/24 11:57 KNTD 241157Z AUTO 14004KT 9SM OVC011 16/16 A2992 RMK AO2 SLP132 T01610156 10161 20156 55005 $
 
KOXR - Oxnard, California, USA
Distance from station: WSW 10mi, 16km
Updated: Mon, 24-Jun-2019 4:51am PDT
Mist, Overcast
Mist, Overcast
 Wind from NE
Wind: NE 3 mph , 6 km/h
Temperature: 61°F , 16°C
Dew Point: 57°F , 14°C
Humidity: 88%
Barometer: 29.91 inHg , 1012.9 hPa
Summary: Mist
Clouds: Overcast
Visibility: 4 miles , 6 km
Cloud details: Overcast 700 ft
2019/06/24 11:51 KOXR 241151Z AUTO 05003KT 4SM BR OVC007 16/14 A2991 RMK AO2 CIG 005V010 SLP128 60000 T01610144 10161 20156 56005
KVNY - Van Nuys, California, USA
Distance from station: E 31mi, 50km
Updated: Mon, 24-Jun-2019 5:02am PDT
Mist, Overcast
Mist, Overcast
 Wind from varies
Wind: varies 3 mph , 6 km/h
Temperature: 61°F , 16°C
Dew Point: 57°F , 14°C
Humidity: 88%
Barometer: 29.91 inHg , 1012.9 hPa
Summary: Mist
Clouds: Overcast
Visibility: 6 miles , 10 km
Cloud details: Overcast 500 ft
2019/06/24 12:02 KVNY 241202Z AUTO VRB03KT 6SM BR OVC005 16/14 A2991 RMK AO2 T01610144
 
KWHP - La / Whiteman, California, USA
Distance from station: E 35mi, 56km
Updated: Sun, 23-Jun-2019 7:55pm PDT
NOT Current
Clear
Clear
 Wind from calm
Wind: Calm
Temperature: 73°F , 23°C
Dew Point: 57°F , 14°C
Humidity: 57%
Barometer: 29.94 inHg , 1013.9 hPa
Clouds: Clear
Visibility: 10 miles , 16 km
2019/06/24 02:55 KWHP 240255Z 00000KT 10SM SKC 23/14 A2994
KSMO - Santa Monica, California, USA
Distance from station: ESE 36mi, 58km
Updated: Mon, 24-Jun-2019 4:51am PDT
Overcast
Overcast
 Wind from calm
Wind: Calm
Temperature: 63°F , 17°C
Dew Point: 59°F , 15°C
Humidity: 88%
Barometer: 29.92 inHg , 1013.2 hPa
Clouds: Overcast
Visibility: 10 miles , 16 km
Cloud details: Overcast 900 ft
2019/06/24 11:51 KSMO 241151Z AUTO 00000KT 10SM OVC009 17/15 A2992 RMK AO2 SLP131 T01670150 10167 20161 56003
 
KBUR - Burbank, California, USA
Distance from station: E 38mi, 61km
Updated: Mon, 24-Jun-2019 4:53am PDT
Mist, Overcast
Mist, Overcast
 Wind from calm
Wind: Calm
Temperature: 61°F , 16°C
Dew Point: 57°F , 14°C
Humidity: 88%
Barometer: 29.91 inHg , 1012.9 hPa
Summary: Mist
Clouds: Overcast
Visibility: 6 miles , 10 km
Cloud details: Overcast 700 ft
2019/06/24 11:53 KBUR 241153Z 00000KT 6SM BR OVC007 16/14 A2991 RMK AO2 SLP118 T01610144 10172 20156 56008
KSDB - Sandberg, California, USA
Distance from station: NNE 40mi, 64km
Updated: Mon, 24-Jun-2019 4:53am PDT
Clear
Clear
 Wind from NW
Wind: NW 14 mph , 22 km/h, Gust: 21 mph , 33 km/h
Temperature: 66°F , 19°C
Dew Point: 45°F , 7°C
Humidity: 46%
Barometer: 30.06 inHg , 1017.9 hPa
Clouds: Clear
Visibility: 10 miles , 16 km
2019/06/24 11:53 KSDB 241153Z AUTO 32012G18KT 10SM CLR 19/07 A3006 RMK AO2 SLP119 T01890067 10211 20183 56006
 
KLAX - Los Angeles, California, USA
Distance from station: ESE 42mi, 68km
Updated: Mon, 24-Jun-2019 4:53am PDT
Light drizzle, Mist, Overcast
Light drizzle, Mist, Overcast
 Wind from calm
Wind: Calm
Temperature: 61°F , 16°C
Dew Point: 61°F , 16°C
Humidity: 100%
Barometer: 29.92 inHg , 1013.2 hPa
Summary: Light drizzle, Mist
Clouds: Overcast
Visibility: 4 miles , 6 km
Cloud details: Partly cloudy 400 ft
Overcast 600 ft
2019/06/24 11:53 KLAX 241153Z 00000KT 4SM -DZ BR SCT004 OVC006 16/16 A2992 RMK AO2 SLP129 VIS NW 2 1/2 P0000 60000 T01610161 10167 20161 56007 $
KCQT - Los Angeles, California, USA
Distance from station: ESE 45mi, 73km
Updated: Mon, 24-Jun-2019 4:52am PDT
Overcast
Overcast
 Wind from calm
Wind: Calm
Temperature: 64°F , 18°C
Dew Point: 59°F , 15°C
Humidity: 83%
Barometer: 29.91 inHg , 1012.9 hPa
Clouds: Overcast
Visibility: 7 miles , 11 km
Cloud details: Overcast 800 ft
2019/06/24 11:52 KCQT 241152Z AUTO 00000KT 7SM OVC008 18/15 A2991 RMK AO2 SLP127 T01780150 10178 20172 56008
 
KHHR - Hawthorne, California, USA
Distance from station: ESE 45mi, 73km
Updated: Mon, 24-Jun-2019 4:53am PDT
Overcast
Overcast
 Wind from SW
Wind: SW 3 mph , 6 km/h
Temperature: 63°F , 17°C
Dew Point: 57°F , 14°C
Humidity: 83%
Barometer: 29.92 inHg , 1013.2 hPa
Clouds: Overcast
Visibility: 9 miles , 14 km
Cloud details: Overcast 800 ft
2019/06/24 11:53 KHHR 241153Z AUTO 22003KT 9SM OVC008 17/14 A2992 RMK AO2 SLP130 T01720144 10178 20172 56007 $
KSBA - Santa Barbara, California, USA
Distance from station: WNW 49mi, 79km
Updated: Mon, 24-Jun-2019 4:53am PDT
Mist, Overcast
Mist, Overcast
 Wind from ESE
Wind: ESE 7 mph , 11 km/h
Temperature: 57°F , 14°C
Dew Point: 57°F , 14°C
Humidity: 100%
Barometer: 29.91 inHg , 1012.9 hPa
Summary: Mist
Clouds: Overcast
Visibility: 4 miles , 6 km
Cloud details: Overcast 300 ft
2019/06/24 11:53 KSBA 241153Z 12006KT 4SM BR OVC003 14/14 A2991 RMK AO2 SLP127 T01440139 10150 20144 56002 $